createdAt,value
2023-04-25T00:00:00.027Z,4.94
2023-04-25T00:01:00.030Z,4.94
2023-04-25T00:02:00.024Z,4.94
2023-04-25T00:03:00.252Z,4.94
2023-04-25T00:04:00.206Z,4.67
2023-04-25T00:05:00.289Z,4.83
2023-04-25T00:07:00.021Z,4.67
2023-04-25T00:08:00.062Z,4.67
2023-04-25T00:09:00.048Z,4.67
2023-04-25T00:10:00.047Z,4.5
2023-04-25T00:11:00.023Z,4.67
2023-04-25T00:12:00.032Z,4.5
2023-04-25T00:13:00.036Z,4.5
2023-04-25T00:14:00.043Z,4.67
2023-04-25T00:16:00.063Z,4.5
2023-04-25T00:17:00.028Z,4.67
2023-04-25T00:18:00.077Z,4.5
2023-04-25T00:20:00.065Z,4.5
2023-04-25T00:21:00.078Z,4.5
2023-04-25T00:22:00.049Z,4.67
2023-04-25T00:23:00.046Z,4.67
2023-04-25T00:24:00.062Z,4.5
2023-04-25T00:26:00.083Z,4.5
2023-04-25T00:27:00.056Z,4.67
2023-04-25T00:29:00.040Z,4.67
2023-04-25T00:30:00.065Z,4.5
2023-04-25T00:31:00.073Z,4.67
2023-04-25T00:33:00.135Z,4.5
2023-04-25T00:35:00.057Z,4.67
2023-04-25T00:37:00.092Z,4.83
2023-04-25T00:38:00.119Z,4.83
2023-04-25T00:39:00.052Z,4.5
2023-04-25T00:40:00.059Z,4.83
2023-04-25T00:41:00.059Z,4.83
2023-04-25T00:43:00.060Z,4.5
2023-04-25T00:45:00.052Z,4.67
2023-04-25T00:46:00.053Z,4.5
2023-04-25T00:47:00.122Z,4.5
2023-04-25T00:48:00.254Z,4.83
2023-04-25T00:49:00.071Z,4.67
2023-04-25T00:50:00.094Z,4.67
2023-04-25T00:52:00.063Z,4.67
2023-04-25T00:53:00.108Z,4.83
2023-04-25T00:55:00.082Z,4.5
2023-04-25T00:56:00.085Z,4.67
2023-04-25T00:57:00.103Z,4.67
2023-04-25T00:58:00.081Z,4.39
2023-04-25T01:00:00.180Z,4.67
2023-04-25T01:02:00.163Z,4.5
2023-04-25T01:03:00.325Z,4.5
2023-04-25T01:05:00.100Z,3.94
2023-04-25T01:07:00.107Z,4.22
2023-04-25T01:09:00.109Z,4.39
2023-04-25T01:10:00.086Z,4.5
2023-04-25T01:11:00.100Z,4.39
2023-04-25T01:12:00.098Z,4.22
2023-04-25T01:14:00.151Z,4.22
2023-04-25T01:15:00.102Z,4.39
2023-04-25T01:16:00.100Z,4.22
2023-04-25T01:17:00.152Z,4.22
2023-04-25T01:18:00.121Z,3.94
2023-04-25T01:19:00.109Z,4.39
2023-04-25T01:20:00.149Z,4.11
2023-04-25T01:21:00.094Z,4.39
2023-04-25T01:22:00.097Z,4.5
2023-04-25T01:23:00.144Z,4.5
2023-04-25T01:24:00.136Z,4.5
2023-04-25T01:25:00.194Z,4.5
2023-04-25T01:27:00.099Z,4.22
2023-04-25T01:28:00.091Z,4.22
2023-04-25T01:30:00.142Z,4.11
2023-04-25T01:32:00.121Z,3.78
2023-04-25T01:34:00.122Z,3.78
2023-04-25T01:35:00.162Z,3.94
2023-04-25T01:36:00.135Z,4.11
2023-04-25T01:37:00.094Z,4.11
2023-04-25T01:38:00.136Z,3.94
2023-04-25T01:39:00.115Z,3.78
2023-04-25T01:40:00.173Z,3.67
2023-04-25T01:41:00.145Z,4.11
2023-04-25T01:43:00.138Z,3.94
2023-04-25T01:44:00.115Z,4.22
2023-04-25T01:45:00.144Z,4.39
2023-04-25T01:46:00.188Z,4.67
2023-04-25T01:48:00.159Z,4.5
2023-04-25T01:49:00.126Z,4.39
2023-04-25T01:50:00.123Z,4.5
2023-04-25T01:51:00.129Z,4.5
2023-04-25T01:52:00.114Z,4.5
2023-04-25T01:53:00.119Z,4.5
2023-04-25T01:54:00.967Z,4.5
2023-04-25T01:55:00.135Z,4.5
2023-04-25T01:56:00.121Z,4.39
2023-04-25T01:57:00.144Z,4.11
2023-04-25T01:59:00.126Z,4.11
2023-04-25T02:00:00.149Z,4.39
2023-04-25T02:01:00.202Z,4.5
2023-04-25T02:02:00.204Z,4.39
2023-04-25T02:04:00.373Z,4.5
2023-04-25T02:06:00.156Z,4.39
2023-04-25T02:07:00.142Z,4.5
2023-04-25T02:08:00.130Z,4.11
2023-04-25T02:09:00.168Z,3.94
2023-04-25T02:10:00.150Z,3.78
2023-04-25T02:11:00.175Z,3.94
2023-04-25T02:12:00.138Z,3.67
2023-04-25T02:13:00.164Z,3.78
2023-04-25T02:15:00.151Z,3.94
2023-04-25T02:16:00.230Z,3.78
2023-04-25T02:17:00.261Z,3.94
2023-04-25T02:18:00.239Z,3.94
2023-04-25T02:20:00.154Z,3.94
2023-04-25T02:22:00.144Z,3.67
2023-04-25T02:23:00.144Z,3.78
2023-04-25T02:24:00.148Z,4.11
2023-04-25T02:25:00.165Z,3.78
2023-04-25T02:27:00.161Z,3.78
2023-04-25T02:28:00.163Z,3.78
2023-04-25T02:29:00.194Z,3.94
2023-04-25T02:30:00.174Z,4.11
2023-04-25T02:31:00.224Z,4.11
2023-04-25T02:32:00.167Z,4.11
2023-04-25T02:33:00.262Z,4.11
2023-04-25T02:34:00.155Z,4.11
2023-04-25T02:35:00.175Z,4.11
2023-04-25T02:36:00.224Z,3.78
2023-04-25T02:37:00.194Z,4.11
2023-04-25T02:38:00.167Z,4.22
2023-04-25T02:39:00.152Z,3.78
2023-04-25T02:40:00.179Z,4.11
2023-04-25T02:42:00.205Z,4.11
2023-04-25T02:43:00.182Z,4.11
2023-04-25T02:44:00.153Z,3.94
2023-04-25T02:45:00.182Z,3.78
2023-04-25T02:47:00.265Z,4.11
2023-04-25T02:48:00.173Z,3.94
2023-04-25T02:49:00.152Z,4.11
2023-04-25T02:50:00.286Z,4.22
2023-04-25T02:51:00.172Z,4.39
2023-04-25T02:52:00.183Z,4.22
2023-04-25T02:54:00.198Z,4.11
2023-04-25T02:55:00.211Z,4.22
2023-04-25T02:56:00.209Z,4.22
2023-04-25T02:58:00.180Z,4.22
2023-04-25T03:00:00.284Z,4.5
2023-04-25T03:01:00.255Z,4.5
2023-04-25T03:03:00.406Z,4.22
2023-04-25T03:04:00.190Z,3.78
2023-04-25T03:05:00.224Z,4.11
2023-04-25T03:06:00.208Z,3.94
2023-04-25T03:07:00.168Z,4.22
2023-04-25T03:08:00.156Z,4.11
2023-04-25T03:09:00.161Z,4.22
2023-04-25T03:10:00.208Z,4.11
2023-04-25T03:12:00.234Z,4.22
2023-04-25T03:13:00.163Z,4.11
2023-04-25T03:14:00.200Z,4.22
2023-04-25T03:16:00.161Z,4.11
2023-04-25T03:17:00.269Z,3.94
2023-04-25T03:19:00.170Z,4.11
2023-04-25T03:20:00.255Z,4.11
2023-04-25T03:21:00.170Z,3.94
2023-04-25T03:22:00.210Z,4.11
2023-04-25T03:23:00.177Z,4.22
2023-04-25T03:24:00.208Z,4.11
2023-04-25T03:25:00.202Z,4.39
2023-04-25T03:26:00.180Z,4.39
2023-04-25T03:28:00.176Z,4.39
2023-04-25T03:29:00.192Z,4.39
2023-04-25T03:30:00.237Z,3.94
2023-04-25T03:31:00.177Z,3.94
2023-04-25T03:32:00.259Z,4.39
2023-04-25T03:33:00.246Z,4.5
2023-04-25T03:34:00.172Z,4.11
2023-04-25T03:35:00.184Z,4.39
2023-04-25T03:36:00.186Z,4.5
2023-04-25T03:37:00.197Z,3.94
2023-04-25T03:38:00.216Z,4.11
2023-04-25T03:40:00.229Z,4.11
2023-04-25T03:42:00.201Z,4.22
2023-04-25T03:43:00.182Z,4.11
2023-04-25T03:44:00.200Z,4.11
2023-04-25T03:45:00.178Z,4.11
2023-04-25T03:46:00.232Z,3.78
2023-04-25T03:47:00.181Z,3.56
2023-04-25T03:48:00.253Z,4.11
2023-04-25T03:49:00.230Z,4.11
2023-04-25T03:50:00.217Z,3.78
2023-04-25T03:51:00.196Z,4.11
2023-04-25T03:52:00.233Z,4.22
2023-04-25T03:53:00.203Z,3.78
2023-04-25T03:54:00.178Z,4.11
2023-04-25T03:55:00.189Z,4.11
2023-04-25T03:57:00.187Z,3.94
2023-04-25T03:58:00.196Z,3.94
2023-04-25T03:59:00.190Z,4.11
2023-04-25T04:00:00.307Z,4.5
2023-04-25T04:01:00.185Z,4.39
2023-04-25T04:02:00.275Z,4.5
2023-04-25T04:03:00.437Z,4.39
2023-04-25T04:04:00.363Z,4.39
2023-04-25T04:05:00.429Z,4.5
2023-04-25T04:07:00.225Z,4.22
2023-04-25T04:08:00.186Z,3.78
2023-04-25T04:09:00.224Z,4.11
2023-04-25T04:11:00.235Z,4.11
2023-04-25T04:12:00.189Z,4.11
2023-04-25T04:14:00.218Z,4.39
2023-04-25T04:16:00.259Z,4.11
2023-04-25T04:18:00.268Z,4.22
2023-04-25T04:19:00.190Z,4.22
2023-04-25T04:20:00.214Z,4.22
2023-04-25T04:21:00.222Z,4.11
2023-04-25T04:22:00.187Z,3.94
2023-04-25T04:23:00.203Z,4.11
2023-04-25T04:24:00.203Z,4.11
2023-04-25T04:25:00.198Z,4.11
2023-04-25T04:26:00.186Z,4.11
2023-04-25T04:27:00.195Z,4.11
2023-04-25T04:28:00.214Z,4.22
2023-04-25T04:30:00.192Z,3.94
2023-04-25T04:31:00.201Z,3.78
2023-04-25T04:33:00.284Z,4.22
2023-04-25T04:34:00.192Z,4.22
2023-04-25T04:35:00.219Z,4.39
2023-04-25T04:36:00.282Z,4.5
2023-04-25T04:37:00.216Z,4.5
2023-04-25T04:38:00.200Z,4.22
2023-04-25T04:39:00.204Z,4.39
2023-04-25T04:40:00.207Z,4.22
2023-04-25T04:42:00.195Z,4.5
2023-04-25T04:43:00.208Z,4.39
2023-04-25T04:45:00.197Z,4.5
2023-04-25T04:46:00.191Z,4.5
2023-04-25T04:47:00.302Z,4.67
2023-04-25T04:48:00.264Z,4.5
2023-04-25T04:50:00.194Z,4.5
2023-04-25T04:51:00.213Z,4.39
2023-04-25T04:53:00.302Z,4.39
2023-04-25T04:55:00.205Z,4.94
2023-04-25T04:56:00.217Z,4.28
2023-04-25T04:57:00.206Z,4.5
2023-04-25T04:58:00.195Z,4.67
2023-04-25T04:59:00.209Z,4.5
2023-04-25T05:00:00.225Z,4.67
2023-04-25T05:01:00.262Z,4.67
2023-04-25T05:03:00.321Z,4.67
2023-04-25T05:04:00.303Z,4.72
2023-04-25T05:06:00.209Z,4.94
2023-04-25T05:08:00.201Z,4.67
2023-04-25T05:09:00.229Z,4.67
2023-04-25T05:11:00.214Z,4.67
2023-04-25T05:13:00.217Z,4.72
2023-04-25T05:14:00.196Z,4.67
2023-04-25T05:15:00.196Z,4.89
2023-04-25T05:16:00.245Z,4.67
2023-04-25T05:17:00.278Z,4.83
2023-04-25T05:18:00.270Z,4.5
2023-04-25T05:19:00.208Z,4.67
2023-04-25T05:20:00.205Z,4.67
2023-04-25T05:21:00.203Z,4.5
2023-04-25T05:22:00.216Z,4.67
2023-04-25T05:24:00.203Z,4.44
2023-04-25T05:25:00.242Z,4.5
2023-04-25T05:26:00.206Z,4.67
2023-04-25T05:27:00.208Z,4.11
2023-04-25T05:28:00.232Z,4.5
2023-04-25T05:29:00.202Z,4.5
2023-04-25T05:30:00.246Z,4.39
2023-04-25T05:31:00.210Z,4.94
2023-04-25T05:32:00.275Z,4.5
2023-04-25T05:33:00.237Z,4.5
2023-04-25T05:34:00.215Z,4.67
2023-04-25T05:35:00.296Z,4.5
2023-04-25T05:36:00.206Z,4.67
2023-04-25T05:37:00.217Z,4.67
2023-04-25T05:38:00.215Z,4.67
2023-04-25T05:39:00.240Z,4.61
2023-04-25T05:40:00.204Z,4.78
2023-04-25T05:41:00.240Z,4.89
2023-04-25T05:43:00.216Z,5
2023-04-25T05:45:00.205Z,4.94
2023-04-25T05:47:00.210Z,4.83
2023-04-25T05:48:00.324Z,4.89
2023-04-25T05:49:00.204Z,5
2023-04-25T05:50:00.234Z,4.61
2023-04-25T05:52:00.209Z,4.89
2023-04-25T05:55:00.206Z,5.44
2023-04-25T05:57:00.235Z,5.61
2023-04-25T05:58:00.216Z,5.61
2023-04-25T05:59:00.210Z,5.83
2023-04-25T06:00:00.256Z,5.72
2023-04-25T06:01:00.206Z,6.28
2023-04-25T06:02:00.246Z,6.39
2023-04-25T06:03:00.347Z,6.39
2023-04-25T06:04:00.321Z,6.72
2023-04-25T06:05:00.509Z,7
2023-04-25T06:07:00.236Z,7.72
2023-04-25T06:08:00.211Z,7.61
2023-04-25T06:09:00.208Z,7.28
2023-04-25T06:10:00.216Z,8.17
2023-04-25T06:11:00.221Z,8.83
2023-04-25T06:12:00.210Z,8.67
2023-04-25T06:13:00.236Z,8.61
2023-04-25T06:15:00.217Z,8.17
2023-04-25T06:17:00.224Z,7.61
2023-04-25T06:18:00.251Z,7.44
2023-04-25T06:19:00.214Z,7.28
2023-04-25T06:21:00.222Z,7.17
2023-04-25T06:23:00.218Z,6.83
2023-04-25T06:25:00.216Z,6.56
2023-04-25T06:26:00.219Z,6.39
2023-04-25T06:29:00.265Z,6
2023-04-25T06:31:00.223Z,6.39
2023-04-25T06:32:00.207Z,6.83
2023-04-25T06:33:00.287Z,6.39
2023-04-25T06:35:00.236Z,6.67
2023-04-25T06:36:00.210Z,7.22
2023-04-25T06:37:00.226Z,7.28
2023-04-25T06:38:00.218Z,7.72
2023-04-25T06:40:00.273Z,7.61
2023-04-25T06:41:00.214Z,8
2023-04-25T06:42:00.202Z,8.17
2023-04-25T06:43:00.223Z,8
2023-04-25T06:45:00.252Z,8
2023-04-25T06:47:00.339Z,8.17
2023-04-25T06:48:00.316Z,8.44
2023-04-25T06:49:00.224Z,8
2023-04-25T06:51:00.217Z,7.44
2023-04-25T06:52:00.213Z,7.61
2023-04-25T06:53:00.218Z,7.5
2023-04-25T06:54:00.229Z,7.67
2023-04-25T06:56:00.238Z,8.83
2023-04-25T06:57:00.250Z,9.17
2023-04-25T06:59:00.246Z,8.83
2023-04-25T07:00:02.046Z,8.67
2023-04-25T07:01:00.307Z,8.5
2023-04-25T07:03:00.321Z,8.61
2023-04-25T07:04:00.461Z,8.39
2023-04-25T07:06:00.237Z,7.94
2023-04-25T07:07:00.223Z,8.11
2023-04-25T07:08:00.237Z,8.61
2023-04-25T07:09:00.235Z,8.39
2023-04-25T07:10:00.252Z,8.61
2023-04-25T07:11:00.238Z,8.5
2023-04-25T07:12:00.236Z,8.39
2023-04-25T07:13:00.236Z,8.78
2023-04-25T07:14:00.227Z,8.39
2023-04-25T07:15:00.232Z,8.39
2023-04-25T07:16:00.278Z,8.78
2023-04-25T07:17:00.364Z,8.5
2023-04-25T07:19:00.238Z,8.78
2023-04-25T07:20:00.236Z,8.5
2023-04-25T07:21:00.244Z,8.78
2023-04-25T07:23:00.259Z,8.28
2023-04-25T07:24:00.248Z,7.94
2023-04-25T07:25:00.248Z,7.78
2023-04-25T07:27:00.250Z,7.5
2023-04-25T07:28:00.247Z,7.5
2023-04-25T07:29:00.259Z,7.67
2023-04-25T07:31:00.253Z,8.94
2023-04-25T07:32:00.307Z,9.22
2023-04-25T07:33:00.338Z,9.78
2023-04-25T07:35:00.236Z,10.11
2023-04-25T07:36:00.248Z,10.11
2023-04-25T07:38:00.303Z,10.39
2023-04-25T07:39:00.239Z,10.39
2023-04-25T07:41:00.266Z,10.56
2023-04-25T07:42:00.256Z,10.39
2023-04-25T07:43:00.245Z,11
2023-04-25T07:44:00.256Z,10.56
2023-04-25T07:45:00.256Z,10.56
2023-04-25T07:46:00.320Z,10.83
2023-04-25T07:47:01.412Z,10.56
2023-04-25T07:49:00.276Z,10.67
2023-04-25T07:50:00.244Z,10.67
2023-04-25T07:51:00.259Z,11
2023-04-25T07:53:00.264Z,10.56
2023-04-25T07:54:00.252Z,10.56
2023-04-25T07:55:00.257Z,10.22
2023-04-25T07:56:00.250Z,10.11
2023-04-25T07:57:00.254Z,10.56
2023-04-25T07:58:00.273Z,10.56
2023-04-25T08:00:00.302Z,10.22
2023-04-25T08:02:00.257Z,9.67
2023-04-25T08:03:00.402Z,9.67
2023-04-25T08:04:00.474Z,9.78
2023-04-25T08:05:00.582Z,10.11
2023-04-25T08:07:00.252Z,10.11
2023-04-25T08:08:00.259Z,10.11
2023-04-25T08:09:00.274Z,9.94
2023-04-25T08:11:00.263Z,10.22
2023-04-25T08:12:00.266Z,10.11
2023-04-25T08:13:00.258Z,9.94
2023-04-25T08:14:00.268Z,9.67
2023-04-25T08:15:00.247Z,9.67
2023-04-25T08:16:00.297Z,9.5
2023-04-25T08:18:00.303Z,9.67
2023-04-25T08:19:00.288Z,9.67
2023-04-25T08:21:00.303Z,9.06
2023-04-25T08:23:00.276Z,8.39
2023-04-25T08:24:00.270Z,8.61
2023-04-25T08:25:00.263Z,8.78
2023-04-25T08:26:00.291Z,8.61
2023-04-25T08:28:00.275Z,8.39
2023-04-25T08:29:00.259Z,8.78
2023-04-25T08:30:00.275Z,8.61
2023-04-25T08:32:00.271Z,8.61
2023-04-25T08:33:00.282Z,8.5
2023-04-25T08:34:00.281Z,8.5
2023-04-25T08:35:00.288Z,8.78
2023-04-25T08:37:00.291Z,9.5
2023-04-25T08:39:00.262Z,9.5
2023-04-25T08:40:00.276Z,9.67
2023-04-25T08:41:00.261Z,9.67
2023-04-25T08:42:00.276Z,9.67
2023-04-25T08:43:00.264Z,9.22
2023-04-25T08:44:00.314Z,9.5
2023-04-25T08:46:00.269Z,8.39
2023-04-25T08:47:00.315Z,8.28
2023-04-25T08:48:00.339Z,8.5
2023-04-25T08:49:00.262Z,8.39
2023-04-25T08:50:00.263Z,8.39
2023-04-25T08:51:00.262Z,7.94
2023-04-25T08:53:00.533Z,7.78
2023-04-25T08:55:00.271Z,7.5
2023-04-25T08:56:00.272Z,7.67
2023-04-25T08:58:00.264Z,8.11
2023-04-25T08:59:00.276Z,7.94
2023-04-25T09:00:00.273Z,7.78
2023-04-25T09:01:00.293Z,6.67
2023-04-25T09:03:00.452Z,5.56
2023-04-25T09:05:00.282Z,4.44
2023-04-25T09:06:00.273Z,4.06
2023-04-25T09:08:00.279Z,3.67
2023-04-25T09:09:00.309Z,4.06
2023-04-25T09:11:00.376Z,4.28
2023-04-25T09:12:00.279Z,4.61
2023-04-25T09:13:00.289Z,4.61
2023-04-25T09:14:00.331Z,4.67
2023-04-25T09:15:00.289Z,4.94
2023-04-25T09:16:00.341Z,5.39
2023-04-25T09:17:00.568Z,5.39
2023-04-25T09:18:00.377Z,5.39
2023-04-25T09:19:00.282Z,5.56
2023-04-25T09:21:01.998Z,6.22
2023-04-25T09:23:00.291Z,6.5
2023-04-25T09:24:00.286Z,6.39
2023-04-25T09:25:00.307Z,6.5
2023-04-25T09:27:00.306Z,6.67
2023-04-25T09:29:00.274Z,6.39
2023-04-25T09:30:00.302Z,6.67
2023-04-25T09:31:00.284Z,6.78
2023-04-25T09:32:00.322Z,6.67
2023-04-25T09:34:00.448Z,6.5
2023-04-25T09:35:00.280Z,7.11
2023-04-25T09:36:00.282Z,7.67
2023-04-25T09:37:00.274Z,7.5
2023-04-25T09:38:00.283Z,7.78
2023-04-25T09:40:00.274Z,8.94
2023-04-25T09:41:00.337Z,9.67
2023-04-25T09:42:00.274Z,8.78
2023-04-25T09:43:00.276Z,8.5
2023-04-25T09:44:01.101Z,8.78
2023-04-25T09:46:00.366Z,8.61
2023-04-25T09:47:00.297Z,9.22
2023-04-25T09:49:00.292Z,9.94
2023-04-25T09:50:00.281Z,9.78
2023-04-25T09:52:00.345Z,9.67
2023-04-25T09:54:00.288Z,9.67
2023-04-25T09:55:00.287Z,10.56
2023-04-25T09:56:00.300Z,11.44
2023-04-25T09:57:00.404Z,10.83
2023-04-25T09:59:00.297Z,10.67
2023-04-25T10:01:00.318Z,10.67
2023-04-25T10:02:00.305Z,10.39
2023-04-25T10:04:00.682Z,9.67
2023-04-25T10:05:00.310Z,10.56
2023-04-25T10:06:00.292Z,11.94
2023-04-25T10:07:00.299Z,12.72
2023-04-25T10:08:00.305Z,12.56
2023-04-25T10:09:00.282Z,12.72
2023-04-25T10:10:00.320Z,11.72
2023-04-25T10:11:00.287Z,10.67
2023-04-25T10:12:00.285Z,10.56
2023-04-25T10:13:00.336Z,10.56
2023-04-25T10:15:00.327Z,10.11
2023-04-25T10:16:00.323Z,10.56
2023-04-25T10:17:00.299Z,11.28
2023-04-25T10:19:00.293Z,11.28
2023-04-25T10:20:00.286Z,11
2023-04-25T10:21:00.288Z,10.22
2023-04-25T10:22:00.295Z,10.11
2023-04-25T10:23:00.282Z,10.22
2023-04-25T10:24:00.296Z,9.94
2023-04-25T10:25:00.319Z,9.22
2023-04-25T10:27:00.291Z,10.22
2023-04-25T10:28:00.294Z,10.22
2023-04-25T10:29:00.319Z,10.11
2023-04-25T10:31:00.426Z,10.56
2023-04-25T10:32:00.363Z,11
2023-04-25T10:33:00.304Z,11.44
2023-04-25T10:35:00.289Z,10.67
2023-04-25T10:36:00.301Z,10.56
2023-04-25T10:38:00.326Z,10.56
2023-04-25T10:39:00.305Z,11
2023-04-25T10:41:00.299Z,11.61
2023-04-25T10:42:00.298Z,11.72
2023-04-25T10:43:00.295Z,11.61
2023-04-25T10:44:00.308Z,11.44
2023-04-25T10:45:00.313Z,11.44
2023-04-25T10:47:00.350Z,11.44
2023-04-25T10:49:00.316Z,10.72
2023-04-25T10:50:00.296Z,10.89
2023-04-25T10:51:00.302Z,10.61
2023-04-25T10:52:00.305Z,10.44
2023-04-25T10:53:00.294Z,10.33
2023-04-25T10:54:00.308Z,10.72
2023-04-25T10:55:00.298Z,11.61
2023-04-25T10:56:00.302Z,11.06
2023-04-25T10:57:00.316Z,11.78
2023-04-25T10:58:00.429Z,12.33
2023-04-25T10:59:00.297Z,12.17
2023-04-25T11:00:00.307Z,12.94
2023-04-25T11:01:00.347Z,13.06
2023-04-25T11:03:00.617Z,13
2023-04-25T11:04:00.627Z,12.5
2023-04-25T11:05:00.307Z,11.61
2023-04-25T11:06:00.320Z,11.06
2023-04-25T11:08:07.440Z,11.17
2023-04-25T11:09:00.320Z,11.06
2023-04-25T11:11:00.304Z,10.89
2023-04-25T11:12:00.325Z,11.06
2023-04-25T11:13:00.304Z,11.61
2023-04-25T11:14:00.315Z,11.33
2023-04-25T11:15:00.316Z,12
2023-04-25T11:16:03.783Z,11.5
2023-04-25T11:17:00.982Z,11.5
2023-04-25T11:18:00.381Z,11.17
2023-04-25T11:19:00.302Z,11.5
2023-04-25T11:20:00.308Z,11.78
2023-04-25T11:21:00.299Z,11.78
2023-04-25T11:22:00.316Z,11.5
2023-04-25T11:23:00.293Z,11.33
2023-04-25T11:24:00.308Z,10.89
2023-04-25T11:25:00.323Z,11.17
2023-04-25T11:26:00.304Z,11.5
2023-04-25T11:27:00.308Z,11.17
2023-04-25T11:28:00.303Z,11.06
2023-04-25T11:29:00.319Z,10.89
2023-04-25T11:31:00.315Z,11.78
2023-04-25T11:32:00.332Z,11.61
2023-04-25T11:33:00.410Z,12.17
2023-04-25T11:35:00.318Z,11.61
2023-04-25T11:36:00.300Z,12.17
2023-04-25T11:37:00.303Z,12.17
2023-04-25T11:38:00.305Z,11.61
2023-04-25T11:39:00.318Z,11.33
2023-04-25T11:40:00.313Z,11.5
2023-04-25T11:42:01.375Z,11.89
2023-04-25T11:43:00.317Z,11.89
2023-04-25T11:44:00.319Z,12
2023-04-25T11:45:00.308Z,12.17
2023-04-25T11:46:00.344Z,11.61
2023-04-25T11:48:00.363Z,10.89
2023-04-25T11:49:00.397Z,11.33
2023-04-25T11:51:00.316Z,11.17
2023-04-25T11:53:00.307Z,10.72
2023-04-25T11:54:00.311Z,10.33
2023-04-25T11:56:00.318Z,10.33
2023-04-25T11:58:00.312Z,10.72
2023-04-25T11:59:00.313Z,10.72
2023-04-25T12:00:00.316Z,10.33
2023-04-25T12:02:00.319Z,10.72
2023-04-25T12:03:00.471Z,10.61
2023-04-25T12:05:07.739Z,10.61
2023-04-25T12:07:00.448Z,10.33
2023-04-25T12:08:00.329Z,10.33
2023-04-25T12:10:00.338Z,10.89
2023-04-25T12:11:00.342Z,10.89
2023-04-25T12:12:00.339Z,10.89
2023-04-25T12:13:00.308Z,10.89
2023-04-25T12:14:00.314Z,11.5
2023-04-25T12:15:00.314Z,11.78
2023-04-25T12:17:00.332Z,11.17
2023-04-25T12:18:00.336Z,11.17
2023-04-25T12:19:00.317Z,10.89
2023-04-25T12:21:00.427Z,11.5
2023-04-25T12:23:00.311Z,11.33
2023-04-25T12:24:00.331Z,11.06
2023-04-25T12:25:00.352Z,11.5
2023-04-25T12:26:00.317Z,12.17
2023-04-25T12:27:00.332Z,11.89
2023-04-25T12:29:00.333Z,13.67
2023-04-25T12:30:00.320Z,13.56
2023-04-25T12:31:00.449Z,13.22
2023-04-25T12:32:00.459Z,12.78
2023-04-25T12:33:00.365Z,12.61
2023-04-25T12:34:00.354Z,12
2023-04-25T12:36:00.330Z,12.17
2023-04-25T12:37:00.345Z,12.94
2023-04-25T12:39:00.323Z,13.11
2023-04-25T12:40:00.324Z,13.39
2023-04-25T12:41:00.320Z,13.22
2023-04-25T12:42:00.311Z,12.5
2023-04-25T12:43:00.321Z,12.94
2023-04-25T12:44:00.315Z,13.11
2023-04-25T12:45:00.340Z,12.94
2023-04-25T12:46:00.323Z,13.39
2023-04-25T12:47:00.445Z,13.22
2023-04-25T12:48:01.947Z,12.94
2023-04-25T12:50:00.326Z,13.22
2023-04-25T12:53:00.342Z,12.94
2023-04-25T12:54:00.311Z,12.94
2023-04-25T12:55:00.340Z,12.5
2023-04-25T12:56:00.346Z,12.78
2023-04-25T12:57:00.318Z,12.94
2023-04-25T12:58:00.332Z,13.39
2023-04-25T12:59:00.327Z,13.83
2023-04-25T13:00:00.353Z,13.67
2023-04-25T13:01:00.328Z,13.83
2023-04-25T13:02:00.343Z,13.39
2023-04-25T13:03:00.526Z,13.11
2023-04-25T13:05:00.323Z,13.39
2023-04-25T13:07:00.327Z,12.78
2023-04-25T13:08:00.339Z,12.5
2023-04-25T13:09:00.390Z,12.33
2023-04-25T13:10:00.454Z,12
2023-04-25T13:11:00.347Z,11.78
2023-04-25T13:12:00.325Z,11.17
2023-04-25T13:13:00.345Z,10.89
2023-04-25T13:15:00.335Z,11.06
2023-04-25T13:16:00.364Z,11.17
2023-04-25T13:17:00.538Z,10.61
2023-04-25T13:18:00.444Z,10.61
2023-04-25T13:20:00.340Z,10.61
2023-04-25T13:22:00.410Z,10.33
2023-04-25T13:24:00.377Z,10.17
2023-04-25T13:25:00.355Z,9.89
2023-04-25T13:27:00.331Z,9.89
2023-04-25T13:29:00.330Z,9.44
2023-04-25T13:30:00.334Z,9.28
2023-04-25T13:31:00.365Z,8.83
2023-04-25T13:32:00.365Z,9.17
2023-04-25T13:34:00.338Z,9.28
2023-04-25T13:35:00.333Z,9
2023-04-25T13:36:00.336Z,8.67
2023-04-25T13:37:00.378Z,8.44
2023-04-25T13:39:00.331Z,8.33
2023-04-25T13:40:00.330Z,8.17
2023-04-25T13:41:00.352Z,8.33
2023-04-25T13:43:00.349Z,9.72
2023-04-25T13:45:00.332Z,10.17
2023-04-25T13:46:00.351Z,9.56
2023-04-25T13:47:00.343Z,10
2023-04-25T13:48:00.341Z,9.89
2023-04-25T13:49:10.302Z,9.89
2023-04-25T13:51:00.336Z,10
2023-04-25T13:52:00.340Z,10.33
2023-04-25T13:53:00.329Z,10
2023-04-25T13:54:00.327Z,10
2023-04-25T13:55:00.340Z,10
2023-04-25T13:57:00.365Z,9.72
2023-04-25T13:59:00.347Z,9
2023-04-25T14:00:00.375Z,8.44
2023-04-25T14:01:00.353Z,8.44
2023-04-25T14:02:00.454Z,8.44
2023-04-25T14:04:00.387Z,7.72
2023-04-25T14:05:00.367Z,8.17
2023-04-25T14:06:00.331Z,7.33
2023-04-25T14:07:00.341Z,7
2023-04-25T14:09:00.346Z,7.61
2023-04-25T14:10:00.350Z,7.61
2023-04-25T14:11:00.345Z,7.61
2023-04-25T14:12:00.336Z,7.72
2023-04-25T14:13:00.482Z,8.17
2023-04-25T14:15:00.340Z,8.17
2023-04-25T14:16:00.370Z,8.44
2023-04-25T14:18:00.398Z,8.83
2023-04-25T14:19:00.335Z,9
2023-04-25T14:20:00.347Z,9
2023-04-25T14:21:00.335Z,8.61
2023-04-25T14:22:00.340Z,9
2023-04-25T14:23:00.363Z,9
2023-04-25T14:24:00.323Z,8.83
2023-04-25T14:25:00.354Z,8.61
2023-04-25T14:27:00.347Z,9.44
2023-04-25T14:28:00.343Z,9
2023-04-25T14:29:00.419Z,8.44
2023-04-25T14:31:00.382Z,8.61
2023-04-25T14:33:00.375Z,8.67
2023-04-25T14:34:00.347Z,9
2023-04-25T14:35:00.350Z,9.17
2023-04-25T14:37:00.359Z,8.67
2023-04-25T14:38:00.364Z,8.33
2023-04-25T14:39:00.332Z,8.33
2023-04-25T14:40:00.340Z,8.61
2023-04-25T14:41:00.333Z,8.61
2023-04-25T14:42:00.343Z,8.33
2023-04-25T14:43:00.349Z,8.61
2023-04-25T14:44:00.342Z,9
2023-04-25T14:45:00.435Z,8.61
2023-04-25T14:47:00.549Z,8.44
2023-04-25T14:48:00.446Z,8.67
2023-04-25T14:49:00.400Z,8.83
2023-04-25T14:50:00.334Z,8.61
2023-04-25T14:51:00.346Z,8.67
2023-04-25T14:52:00.356Z,8.61
2023-04-25T14:53:00.340Z,9
2023-04-25T14:54:00.366Z,8.83
2023-04-25T14:56:00.351Z,8.83
2023-04-25T14:57:00.351Z,9
2023-04-25T14:58:00.352Z,8.83
2023-04-25T14:59:00.359Z,8.83
2023-04-25T15:00:00.355Z,8.83
2023-04-25T15:01:00.422Z,8.33
2023-04-25T15:03:00.603Z,8.67
2023-04-25T15:04:00.548Z,8.61
2023-04-25T15:05:00.473Z,8.61
2023-04-25T15:06:00.360Z,8.33
2023-04-25T15:07:00.357Z,8.67
2023-04-25T15:08:00.363Z,8.44
2023-04-25T15:09:00.354Z,8.17
2023-04-25T15:10:00.430Z,8.61
2023-04-25T15:12:00.396Z,8.33
2023-04-25T15:14:00.357Z,8.67
2023-04-25T15:16:00.357Z,8.17
2023-04-25T15:17:00.510Z,7.61
2023-04-25T15:19:00.376Z,7.72
2023-04-25T15:20:00.470Z,6.89
2023-04-25T15:21:00.362Z,6.61
2023-04-25T15:22:00.357Z,6.33
2023-04-25T15:23:00.357Z,5.89
2023-04-25T15:24:00.380Z,5.61
2023-04-25T15:25:00.374Z,5.5
2023-04-25T15:26:00.371Z,5.17
2023-04-25T15:27:00.387Z,4.61
2023-04-25T15:28:00.386Z,5.06
2023-04-25T15:29:00.381Z,4.89
2023-04-25T15:30:00.611Z,4.5
2023-04-25T15:32:00.384Z,4.61
2023-04-25T15:33:00.490Z,4.78
2023-04-25T15:35:00.352Z,4.17
2023-04-25T15:36:00.398Z,3.89
2023-04-25T15:37:00.360Z,3.89
2023-04-25T15:39:00.385Z,3.89
2023-04-25T15:41:00.371Z,4.17
2023-04-25T15:42:00.370Z,4.17
2023-04-25T15:44:00.362Z,4.5
2023-04-25T15:45:00.351Z,4.33
2023-04-25T15:46:00.413Z,4.5
2023-04-25T15:47:00.359Z,4.28
2023-04-25T15:48:00.373Z,3.83
2023-04-25T15:49:00.378Z,4.39
2023-04-25T15:51:00.354Z,4.67
2023-04-25T15:52:00.383Z,4.5
2023-04-25T15:53:00.363Z,4.5
2023-04-25T15:55:00.365Z,4.5
2023-04-25T15:56:00.366Z,4.5
2023-04-25T15:57:00.376Z,4.5
2023-04-25T15:58:00.362Z,4.5
2023-04-25T15:59:00.368Z,4.5
2023-04-25T16:00:00.369Z,4.5
2023-04-25T16:01:00.415Z,4.5
2023-04-25T16:03:00.480Z,4.67
2023-04-25T16:04:00.448Z,4.67
2023-04-25T16:05:00.625Z,4.67
2023-04-25T16:06:00.363Z,4.83
2023-04-25T16:07:00.372Z,4.67
2023-04-25T16:08:00.387Z,4.83
2023-04-25T16:09:00.385Z,4.94
2023-04-25T16:11:00.380Z,4.67
2023-04-25T16:12:00.375Z,4.39
2023-04-25T16:14:00.380Z,4.11
2023-04-25T16:16:00.383Z,4.22
2023-04-25T16:17:00.391Z,4.39
2023-04-25T16:18:00.423Z,4.39
2023-04-25T16:19:00.378Z,4.39
2023-04-25T16:20:00.386Z,4.5
2023-04-25T16:21:00.499Z,4.39
2023-04-25T16:22:00.383Z,4.67
2023-04-25T16:23:00.386Z,4.39
2023-04-25T16:24:00.395Z,4.67
2023-04-25T16:26:00.388Z,4.39
2023-04-25T16:28:00.392Z,4.39
2023-04-25T16:29:00.392Z,4.39
2023-04-25T16:30:00.395Z,4.11
2023-04-25T16:32:00.531Z,4.22
2023-04-25T16:33:00.434Z,4.39
2023-04-25T16:34:00.469Z,4.22
2023-04-25T16:36:00.396Z,4.39
2023-04-25T16:37:00.428Z,4.39
2023-04-25T16:38:00.393Z,4.39
2023-04-25T16:39:00.402Z,4.39
2023-04-25T16:40:00.388Z,4.5
2023-04-25T16:41:00.411Z,4.5
2023-04-25T16:43:00.411Z,4.67
2023-04-25T16:44:00.430Z,4.5
2023-04-25T16:46:00.421Z,4.5
2023-04-25T16:47:00.453Z,4.5